Time;durP1;ratioP1;P1;durP2;ratioP2;P2;SDS_P1;SDS_P2;PMS_P1;PMS_P2;Temp;Humidity;BMP_temperature;BMP_pressure;BME280_temperature;BME280_humidity;BME280_pressure;Samples;Min_cycle;Max_cycle;Signal;HPM_P1;HPM_P2
2023/08/24 00:00:16;;;;;;;2.55;1.23;;;18.30;99.90;;;;;;5031015;28;20197;-71
2023/08/24 00:02:41;;;;;;;2.78;1.20;;;18.20;99.90;;;;;;5031290;28;20169;-70
2023/08/24 00:05:07;;;;;;;5.40;1.15;;;18.30;99.90;;;;;;5031010;28;20640;-71
2023/08/24 00:07:32;;;;;;;4.57;1.50;;;18.20;99.90;;;;;;5031078;28;20316;-70
2023/08/24 00:09:58;;;;;;;2.33;1.40;;;18.30;99.90;;;;;;5030892;28;20541;-71
2023/08/24 00:12:24;;;;;;;2.90;1.40;;;18.30;99.90;;;;;;5029931;28;20272;-71
2023/08/24 00:14:49;;;;;;;3.47;1.25;;;18.20;99.90;;;;;;5030508;28;20253;-71
2023/08/24 00:17:15;;;;;;;3.95;1.55;;;18.30;99.90;;;;;;5027277;28;20181;-71
2023/08/24 00:19:41;;;;;;;5.72;1.30;;;18.30;99.90;;;;;;5029616;28;20501;-72
2023/08/24 00:22:06;;;;;;;3.97;1.73;;;18.30;99.90;;;;;;5029738;28;20174;-72
2023/08/24 00:24:32;;;;;;;3.25;1.42;;;;;;;;;;5030966;28;20526;-71
2023/08/24 00:26:58;;;;;;;4.45;1.50;;;;;;;;;;5030797;28;20246;-71
2023/08/24 00:29:24;;;;;;;4.28;1.80;;;;;;;;;;5030788;28;20247;-71
2023/08/24 00:31:50;;;;;;;5.82;1.52;;;18.30;99.90;;;;;;5030794;28;20176;-71
2023/08/24 00:34:15;;;;;;;2.38;1.60;;;18.30;99.90;;;;;;5030262;28;20182;-70
2023/08/24 00:36:41;;;;;;;2.97;1.25;;;18.30;99.90;;;;;;5020438;28;20175;-71
2023/08/24 00:39:07;;;;;;;4.63;1.30;;;18.40;99.90;;;;;;5021822;28;20202;-70
2023/08/24 00:41:32;;;;;;;3.60;1.42;;;18.40;99.90;;;;;;5030342;28;20620;-70
2023/08/24 00:43:58;;;;;;;3.33;1.48;;;18.40;99.90;;;;;;5030780;28;20244;-70
2023/08/24 00:46:27;;;;;;;7.25;1.77;;;18.40;99.90;;;;;;5030247;28;20698;-71
2023/08/24 00:48:56;;;;;;;2.28;1.17;;;18.50;99.90;;;;;;5030743;28;20167;-70
2023/08/24 00:51:22;;;;;;;3.63;1.70;;;18.40;99.90;;;;;;5033510;28;20162;-71
2023/08/24 00:53:48;;;;;;;4.50;1.40;;;18.40;99.90;;;;;;5034267;28;20174;-72
2023/08/24 00:56:14;;;;;;;12.32;1.38;;;18.40;99.90;;;;;;5034542;28;20527;-72
2023/08/24 00:58:40;;;;;;;3.60;1.60;;;18.30;99.90;;;;;;5034300;28;20177;-72
2023/08/24 01:01:06;;;;;;;6.97;1.17;;;18.30;99.90;;;;;;5034103;28;20218;-72
2023/08/24 01:03:32;;;;;;;2.60;1.45;;;18.40;99.90;;;;;;5034011;28;20242;-70
2023/08/24 01:05:57;;;;;;;6.40;1.40;;;18.40;99.90;;;;;;5034410;28;20182;-72
2023/08/24 01:08:24;;;;;;;3.55;1.30;;;18.30;99.90;;;;;;5034280;28;20197;-71
2023/08/24 01:11:02;;;;;;;2.70;1.23;;;18.40;99.90;;;;;;5034241;28;20165;-71
2023/08/24 01:13:41;;;;;;;2.90;1.48;;;18.40;99.90;;;;;;5034235;28;20196;-71
2023/08/24 01:16:16;;;;;;;3.72;1.30;;;18.30;99.90;;;;;;5034290;28;20231;-71
2023/08/24 01:18:43;;;;;;;1.58;1.23;;;18.30;99.90;;;;;;5034161;28;20165;-71
2023/08/24 01:21:09;;;;;;;7.05;1.48;;;18.20;99.90;;;;;;5034045;28;20197;-71
2023/08/24 01:23:59;;;;;;;3.97;1.42;;;18.10;99.90;;;;;;5034113;28;20177;-71
2023/08/24 01:26:26;;;;;;;2.92;1.23;;;18.10;99.90;;;;;;5033589;28;20182;-70
2023/08/24 01:28:52;;;;;;;4.03;1.15;;;18.10;99.90;;;;;;5033952;28;20180;-70
2023/08/24 01:31:18;;;;;;;3.30;1.40;;;18.10;99.90;;;;;;5033921;28;20660;-71
2023/08/24 01:33:45;;;;;;;4.85;1.35;;;17.60;99.90;;;;;;5016398;28;20174;-71
2023/08/24 01:36:13;;;;;;;4.60;1.20;;;18.00;99.90;;;;;;5012847;28;20175;-71
2023/08/24 01:38:39;;;;;;;1.98;1.10;;;17.80;99.90;;;;;;5014108;28;20179;-71
2023/08/24 01:41:24;;;;;;;3.95;1.55;;;17.80;99.90;;;;;;5013657;28;20704;-71
2023/08/24 01:43:54;;;;;;;5.53;1.38;;;17.60;99.90;;;;;;5014448;28;20210;-72
2023/08/24 01:46:22;;;;;;;3.92;1.20;;;17.70;99.90;;;;;;5033557;28;20256;-72
2023/08/24 01:48:48;;;;;;;4.72;1.30;;;17.70;99.90;;;;;;5031943;28;20174;-70
2023/08/24 01:51:15;;;;;;;4.22;1.60;;;17.80;99.90;;;;;;5033428;28;20641;-70
2023/08/24 01:53:41;;;;;;;3.60;1.33;;;17.80;99.90;;;;;;5031485;28;20581;-70
2023/08/24 01:56:15;;;;;;;3.03;1.40;;;17.80;99.90;;;;;;5033345;28;20170;-70
2023/08/24 01:58:41;;;;;;;4.57;1.58;;;17.80;99.90;;;;;;5033296;28;20269;-71
2023/08/24 02:01:10;;;;;;;4.13;1.48;;;17.80;99.90;;;;;;5032734;28;20747;-71
2023/08/24 02:03:36;;;;;;;3.53;1.48;;;17.80;99.90;;;;;;5032596;28;20174;-71
2023/08/24 02:06:02;;;;;;;4.68;1.33;;;17.80;99.90;;;;;;5033275;28;20181;-70
2023/08/24 02:08:28;;;;;;;4.68;1.40;;;17.80;99.90;;;;;;5032976;28;20194;-70
2023/08/24 02:10:54;;;;;;;3.10;1.25;;;17.70;99.90;;;;;;5033054;28;20257;-71
2023/08/24 02:13:19;;;;;;;4.18;1.70;;;17.70;99.90;;;;;;5032920;28;20620;-70
2023/08/24 02:15:45;;;;;;;7.57;1.35;;;17.70;99.90;;;;;;5031627;28;20170;-71
2023/08/24 02:18:11;;;;;;;4.45;1.38;;;17.60;99.90;;;;;;5032775;28;20240;-70
2023/08/24 02:20:40;;;;;;;1.67;1.13;;;17.60;99.90;;;;;;5032939;28;20217;-70
2023/08/24 02:23:06;;;;;;;5.32;1.40;;;17.70;99.90;;;;;;5032666;28;20216;-69
2023/08/24 02:25:31;;;;;;;2.22;1.23;;;17.60;99.90;;;;;;5032874;28;20193;-69
2023/08/24 02:27:57;;;;;;;2.33;1.20;;;17.60;99.90;;;;;;5032488;28;20209;-70
2023/08/24 02:30:23;;;;;;;5.50;1.70;;;17.60;99.90;;;;;;5031372;28;20174;-69
2023/08/24 02:32:49;;;;;;;5.30;1.60;;;17.50;99.90;;;;;;5032554;28;20227;-72
2023/08/24 02:35:15;;;;;;;3.50;1.50;;;17.50;99.90;;;;;;5032784;28;20205;-71
2023/08/24 02:37:40;;;;;;;3.78;1.42;;;17.50;99.90;;;;;;5032461;28;20640;-72
2023/08/24 02:40:06;;;;;;;3.63;1.30;;;17.50;99.90;;;;;;5032500;28;20692;-72
2023/08/24 02:42:33;;;;;;;2.33;1.40;;;17.10;99.90;;;;;;5032305;28;20177;-72
2023/08/24 02:44:59;;;;;;;3.25;1.65;;;17.40;99.90;;;;;;5032553;28;20182;-69
2023/08/24 02:47:24;;;;;;;4.43;1.52;;;17.50;99.90;;;;;;5032060;28;20308;-70
2023/08/24 02:49:50;;;;;;;5.70;1.77;;;17.50;99.90;;;;;;5032509;28;20181;-70
2023/08/24 02:52:16;;;;;;;4.40;1.40;;;17.50;99.90;;;;;;5032378;28;20213;-70
2023/08/24 02:54:42;;;;;;;6.22;1.90;;;17.50;99.90;;;;;;5031125;28;20672;-71
2023/08/24 02:57:07;;;;;;;2.05;1.52;;;17.50;99.90;;;;;;5032160;28;20176;-71
2023/08/24 02:59:33;;;;;;;2.95;1.45;;;17.70;99.90;;;;;;5031770;28;20185;-71
2023/08/24 03:01:58;;;;;;;3.30;1.50;;;17.40;99.90;;;;;;5031834;28;20269;-71
2023/08/24 03:04:24;;;;;;;3.85;1.50;;;17.40;99.90;;;;;;5032137;28;20244;-71
2023/08/24 03:06:50;;;;;;;2.60;1.10;;;17.30;99.90;;;;;;5032059;28;20257;-71
2023/08/24 03:09:15;;;;;;;6.30;1.58;;;17.30;99.90;;;;;;5032018;28;20694;-70
2023/08/24 03:11:41;;;;;;;2.08;1.50;;;17.30;99.90;;;;;;5031663;28;20177;-71
2023/08/24 03:14:07;;;;;;;4.20;1.70;;;;;;;;;;5031433;28;20178;-70
2023/08/24 03:16:33;;;;;;;3.28;1.77;;;17.30;99.90;;;;;;5031402;28;20228;-70
2023/08/24 03:18:59;;;;;;;5.35;1.77;;;17.30;99.90;;;;;;5031925;28;20194;-70
2023/08/24 03:21:24;;;;;;;4.13;1.63;;;18.10;99.90;;;;;;5031400;28;20210;-71
2023/08/24 03:23:50;;;;;;;3.88;1.70;;;17.30;99.90;;;;;;5021148;28;20609;-71
2023/08/24 03:26:16;;;;;;;4.20;1.40;;;17.30;99.90;;;;;;5012209;28;20214;-71
2023/08/24 03:28:42;;;;;;;4.25;1.55;;;17.30;99.90;;;;;;5029264;28;20182;-71
2023/08/24 03:31:08;;;;;;;5.07;1.45;;;17.30;99.90;;;;;;5031743;28;20182;-71
2023/08/24 03:33:34;;;;;;;10.20;1.52;;;17.30;99.90;;;;;;5031738;28;20188;-71
2023/08/24 03:36:00;;;;;;;5.38;1.60;;;17.20;99.90;;;;;;5031595;28;20170;-71
2023/08/24 03:38:27;;;;;;;6.38;1.73;;;17.30;99.90;;;;;;5031746;28;20173;-71
2023/08/24 03:41:00;;;;;;;5.47;1.65;;;17.20;99.90;;;;;;5012864;28;20218;-71
2023/08/24 03:43:26;;;;;;;14.20;1.95;;;17.20;99.90;;;;;;5011855;28;20178;-70
2023/08/24 03:45:51;;;;;;;4.70;1.60;;;17.20;99.90;;;;;;5015489;28;20235;-70
2023/08/24 03:48:17;;;;;;;5.47;1.85;;;17.30;99.90;;;;;;5046606;28;20177;-70
2023/08/24 03:50:43;;;;;;;3.35;1.50;;;17.30;99.90;;;;;;5030037;28;20184;-71
2023/08/24 03:53:09;;;;;;;3.58;1.55;;;17.20;99.90;;;;;;5030916;28;20170;-70
2023/08/24 03:55:34;;;;;;;4.72;1.65;;;17.20;99.90;;;;;;5031026;28;20244;-70
2023/08/24 03:58:00;;;;;;;3.22;1.45;;;17.20;99.90;;;;;;5031149;28;20184;-70
2023/08/24 04:00:26;;;;;;;5.32;1.60;;;17.20;99.90;;;;;;5030741;28;20247;-70
2023/08/24 04:02:51;;;;;;;3.55;1.60;;;17.30;99.90;;;;;;5031237;28;20181;-71
2023/08/24 04:05:17;;;;;;;8.52;1.77;;;17.30;99.90;;;;;;5030996;28;20209;-72
2023/08/24 04:07:43;;;;;;;3.40;1.38;;;17.10;99.90;;;;;;5030746;28;20273;-72
2023/08/24 04:10:09;;;;;;;3.92;1.60;;;17.20;99.90;;;;;;5031039;28;20633;-70
2023/08/24 04:12:35;;;;;;;2.53;1.50;;;17.20;99.90;;;;;;5030882;28;20169;-70
2023/08/24 04:15:01;;;;;;;4.25;1.70;;;17.10;99.90;;;;;;5030845;28;20521;-70
2023/08/24 04:17:26;;;;;;;5.30;1.73;;;17.10;99.90;;;;;;5030747;28;20188;-70
2023/08/24 04:19:52;;;;;;;6.22;2.05;;;17.10;99.90;;;;;;5030952;28;20180;-70
2023/08/24 04:22:18;;;;;;;7.63;1.90;;;17.00;99.90;;;;;;5030906;28;20176;-70
2023/08/24 04:24:43;;;;;;;4.88;1.67;;;17.00;99.90;;;;;;5031033;28;20674;-70
2023/08/24 04:27:09;;;;;;;6.63;1.90;;;17.00;99.90;;;;;;5034653;28;20675;-70
2023/08/24 04:29:35;;;;;;;5.90;1.90;;;17.00;99.90;;;;;;5034923;28;20236;-70
2023/08/24 04:32:00;;;;;;;2.40;1.75;;;17.00;99.90;;;;;;5034742;28;20651;-70
2023/08/24 04:34:26;;;;;;;6.55;2.08;;;17.20;99.90;;;;;;5033370;28;20185;-69
2023/08/24 04:36:52;;;;;;;4.72;1.90;;;17.10;99.90;;;;;;5034588;28;20170;-69
2023/08/24 04:39:18;;;;;;;3.70;1.70;;;17.10;99.90;;;;;;5034994;28;20174;-69
2023/08/24 04:41:45;;;;;;;4.43;1.60;;;17.20;99.90;;;;;;5034286;28;20213;-70
2023/08/24 04:44:10;;;;;;;3.45;1.23;;;17.10;99.90;;;;;;5034499;28;20540;-70
2023/08/24 04:46:36;;;;;;;3.97;1.92;;;17.10;99.90;;;;;;5034500;28;20188;-70
2023/08/24 04:49:03;;;;;;;9.13;1.90;;;17.40;99.90;;;;;;5034563;28;20644;-69
2023/08/24 04:51:29;;;;;;;5.78;1.77;;;17.10;99.90;;;;;;5033384;28;20273;-70
2023/08/24 04:53:54;;;;;;;4.75;1.67;;;17.10;99.90;;;;;;5026163;28;20198;-70
2023/08/24 04:56:20;;;;;;;6.18;1.80;;;17.10;99.90;;;;;;5022734;28;20174;-70
2023/08/24 04:58:56;;;;;;;2.58;1.45;;;16.80;99.90;;;;;;5034122;28;20636;-70
2023/08/24 05:01:25;;;;;;;5.18;1.60;;;16.90;99.90;;;;;;5034142;28;20220;-70
2023/08/24 05:03:52;;;;;;;3.50;1.60;;;16.90;99.90;;;;;;5034203;28;20178;-70
2023/08/24 05:06:18;;;;;;;5.63;1.90;;;16.90;99.90;;;;;;5034073;28;20252;-70
2023/08/24 05:08:44;;;;;;;4.60;2.15;;;16.90;99.90;;;;;;5032922;28;20243;-70
2023/08/24 05:11:14;;;;;;;3.83;1.70;;;16.90;99.90;;;;;;5033915;28;20628;-70
2023/08/24 05:13:40;;;;;;;8.15;1.98;;;17.00;99.90;;;;;;5034048;28;20182;-70
2023/08/24 05:16:06;;;;;;;2.95;1.58;;;17.00;99.90;;;;;;5033949;28;20291;-71
2023/08/24 05:18:31;;;;;;;4.05;1.77;;;18.60;99.90;;;;;;5034196;28;20205;-70
2023/08/24 05:20:57;;;;;;;6.07;1.80;;;17.00;99.90;;;;;;5033861;28;20300;-70
2023/08/24 05:23:23;;;;;;;3.38;1.88;;;17.00;99.90;;;;;;5033764;28;20205;-70
2023/08/24 05:25:48;;;;;;;5.10;2.53;;;17.00;99.90;;;;;;5034021;28;20178;-70
2023/08/24 05:28:14;;;;;;;7.20;1.90;;;17.00;99.90;;;;;;5032333;28;20698;-71
2023/08/24 05:30:39;;;;;;;4.88;2.05;;;17.10;99.90;;;;;;5013017;28;20175;-70
2023/08/24 05:33:05;;;;;;;4.95;1.65;;;17.10;99.90;;;;;;5021927;28;20554;-70
2023/08/24 05:35:31;;;;;;;4.63;1.95;;;17.10;99.90;;;;;;5033941;28;20636;-70
2023/08/24 05:37:56;;;;;;;5.55;2.03;;;17.10;99.90;;;;;;5033767;28;20170;-70
2023/08/24 05:40:22;;;;;;;4.30;1.70;;;;;;;;;;5033560;28;20230;-70
2023/08/24 05:42:48;;;;;;;4.18;1.95;;;17.10;99.90;;;;;;5032417;28;20192;-70
2023/08/24 05:45:13;;;;;;;6.30;2.10;;;17.20;99.90;;;;;;5026131;28;20199;-70
2023/08/24 05:47:39;;;;;;;8.35;2.28;;;17.20;99.90;;;;;;5025447;28;20178;-70
2023/08/24 05:50:05;;;;;;;3.78;2.00;;;17.20;99.90;;;;;;5031861;28;20678;-71
2023/08/24 05:52:31;;;;;;;4.70;2.38;;;17.20;99.90;;;;;;5033403;28;20251;-70
2023/08/24 05:54:56;;;;;;;5.30;1.80;;;17.20;99.90;;;;;;5032147;28;20629;-70
2023/08/24 05:57:22;;;;;;;6.53;1.90;;;17.30;99.90;;;;;;5033259;28;20182;-70
2023/08/24 05:59:47;;;;;;;6.55;2.28;;;17.30;99.90;;;;;;5015113;28;20652;-70
2023/08/24 06:02:13;;;;;;;4.05;2.10;;;17.30;99.90;;;;;;5029632;28;20228;-70
2023/08/24 06:04:38;;;;;;;5.47;2.30;;;17.40;99.90;;;;;;5032992;28;20223;-70
2023/08/24 06:07:05;;;;;;;7.28;2.20;;;;;;;;;;5033028;28;20682;-71
2023/08/24 06:09:31;;;;;;;5.85;2.50;;;17.40;99.90;;;;;;5033092;28;20652;-71
2023/08/24 06:11:57;;;;;;;8.02;1.90;;;17.50;99.90;;;;;;5033114;28;20193;-71
2023/08/24 06:14:23;;;;;;;10.25;2.50;;;17.60;99.90;;;;;;5033188;28;20178;-71
2023/08/24 06:16:48;;;;;;;6.53;2.28;;;17.60;99.90;;;;;;5032782;28;20192;-70
2023/08/24 06:19:14;;;;;;;5.57;2.40;;;17.70;99.90;;;;;;5032470;28;20177;-71
2023/08/24 06:21:40;;;;;;;4.90;2.40;;;17.70;99.90;;;;;;5031552;28;20690;-70
2023/08/24 06:24:05;;;;;;;6.38;2.20;;;17.50;99.90;;;;;;5032700;28;20177;-70
2023/08/24 06:26:31;;;;;;;5.95;2.13;;;17.50;99.90;;;;;;5032701;28;20651;-72
2023/08/24 06:28:57;;;;;;;7.68;2.75;;;17.60;99.90;;;;;;5032442;28;20529;-72
2023/08/24 06:31:22;;;;;;;5.40;2.05;;;17.60;99.90;;;;;;5032924;28;20181;-72
2023/08/24 06:33:49;;;;;;;6.40;2.15;;;17.70;99.90;;;;;;5032830;28;20203;-72
2023/08/24 06:36:15;;;;;;;7.10;2.33;;;18.00;99.90;;;;;;5032537;28;20178;-72
2023/08/24 06:38:40;;;;;;;4.88;2.40;;;18.00;99.90;;;;;;5031739;28;20543;-72
2023/08/24 06:41:08;;;;;;;13.15;2.83;;;17.90;99.90;;;;;;5028202;28;20236;-70
2023/08/24 06:43:34;;;;;;;7.47;2.30;;;18.10;99.90;;;;;;5031865;28;20640;-74
2023/08/24 06:45:59;;;;;;;7.00;2.10;;;18.10;99.90;;;;;;5027929;28;20188;-74
2023/08/24 06:48:25;;;;;;;5.70;2.25;;;18.20;99.90;;;;;;5030877;28;20177;-74
2023/08/24 06:50:51;;;;;;;5.13;2.50;;;18.30;99.90;;;;;;5028184;28;20630;-74
2023/08/24 06:53:16;;;;;;;6.63;2.38;;;18.20;99.90;;;;;;5031894;28;20203;-74
2023/08/24 06:55:42;;;;;;;7.60;2.80;;;18.40;99.90;;;;;;5032449;28;20185;-74
2023/08/24 06:58:08;;;;;;;4.38;2.42;;;18.30;99.90;;;;;;5032140;28;20173;-74
2023/08/24 07:00:33;;;;;;;7.00;2.70;;;18.40;99.90;;;;;;5032178;28;20221;-74
2023/08/24 07:02:59;;;;;;;7.80;2.92;;;18.50;99.90;;;;;;5032368;28;20170;-75
2023/08/24 07:05:25;;;;;;;8.77;2.78;;;;;;;;;;5031128;28;20261;-73
2023/08/24 07:07:51;;;;;;;7.28;2.90;;;18.60;99.90;;;;;;5030832;28;20232;-73
2023/08/24 07:10:17;;;;;;;8.77;2.78;;;18.70;99.90;;;;;;5032112;28;20532;-72
2023/08/24 07:12:44;;;;;;;9.15;2.95;;;18.70;99.90;;;;;;5032213;28;20174;-73
2023/08/24 07:15:13;;;;;;;6.78;3.05;;;18.70;99.90;;;;;;5031688;28;20174;-74
2023/08/24 07:17:39;;;;;;;8.18;2.90;;;18.70;99.90;;;;;;5031712;28;20178;-74
2023/08/24 07:20:06;;;;;;;9.48;2.60;;;18.80;99.90;;;;;;5046913;28;20181;-74
2023/08/24 07:22:32;;;;;;;5.65;3.15;;;18.80;99.90;;;;;;5031526;28;20542;-74
2023/08/24 07:24:58;;;;;;;12.35;3.00;;;18.90;99.90;;;;;;5030606;28;20193;-74
2023/08/24 07:27:24;;;;;;;8.63;2.92;;;;;;;;;;5031371;28;20173;-74
2023/08/24 07:29:50;;;;;;;13.65;2.78;;;19.00;99.90;;;;;;5029370;28;20701;-73
2023/08/24 07:32:15;;;;;;;13.15;2.63;;;19.10;99.90;;;;;;5019576;28;20267;-72
2023/08/24 07:34:41;;;;;;;10.13;2.70;;;19.00;99.90;;;;;;5030901;28;20182;-71
2023/08/24 07:37:07;;;;;;;7.60;3.13;;;19.00;99.90;;;;;;5031316;28;20173;-71
2023/08/24 07:39:33;;;;;;;6.22;2.80;;;19.00;99.90;;;;;;5031157;28;20178;-73
2023/08/24 07:41:59;;;;;;;12.10;3.42;;;19.10;99.90;;;;;;5030931;28;20233;-72
2023/08/24 07:44:24;;;;;;;6.90;2.85;;;19.20;99.90;;;;;;5027774;28;20213;-72
2023/08/24 07:46:50;;;;;;;7.07;2.50;;;19.20;99.90;;;;;;5031007;28;20660;-72
2023/08/24 07:49:16;;;;;;;8.82;2.60;;;19.10;99.90;;;;;;5031321;28;20166;-70
2023/08/24 07:51:42;;;;;;;5.13;2.28;;;19.20;99.90;;;;;;5025938;28;20178;-72
2023/08/24 07:54:08;;;;;;;8.75;2.40;;;19.40;99.90;;;;;;5029180;28;20204;-71
2023/08/24 07:56:35;;;;;;;5.15;2.35;;;19.50;99.90;;;;;;5031204;28;20632;-72
2023/08/24 07:59:00;;;;;;;7.25;2.45;;;19.50;99.90;;;;;;5030793;28;20174;-72
2023/08/24 08:01:26;;;;;;;7.95;2.80;;;19.60;99.90;;;;;;5030484;28;20209;-72
2023/08/24 08:03:52;;;;;;;6.68;2.72;;;;;;;;;;5031124;28;20690;-73
2023/08/24 08:06:18;;;;;;;6.80;2.83;;;19.80;99.90;;;;;;5030798;28;20257;-72
2023/08/24 08:08:45;;;;;;;7.45;2.67;;;19.70;99.90;;;;;;5030961;28;20643;-72
2023/08/24 08:11:11;;;;;;;7.15;2.80;;;19.80;99.90;;;;;;5030990;28;20181;-72
2023/08/24 08:13:36;;;;;;;6.82;2.45;;;19.90;99.90;;;;;;5030999;28;20172;-73
2023/08/24 08:16:07;;;;;;;7.45;2.35;;;19.90;99.90;;;;;;5030242;28;20205;-72
2023/08/24 08:18:33;;;;;;;6.35;2.70;;;20.10;99.90;;;;;;5031037;28;20174;-72
2023/08/24 08:20:59;;;;;;;10.15;2.88;;;21.20;99.90;;;;;;5023190;28;20313;-73
2023/08/24 08:23:25;;;;;;;7.95;2.22;;;22.70;99.90;;;;;;5020009;28;20250;-74
2023/08/24 08:25:51;;;;;;;11.18;2.85;;;23.50;99.90;;;;;;5028519;28;20253;-74
2023/08/24 08:28:18;;;;;;;11.18;2.75;;;24.20;99.90;;;;;;5036693;28;20606;-74
2023/08/24 08:30:44;;;;;;;8.95;2.95;;;24.60;99.90;;;;;;5020877;28;20174;-74
2023/08/24 08:33:10;;;;;;;10.43;2.38;;;24.50;99.90;;;;;;5016659;28;20174;-73
2023/08/24 08:35:38;;;;;;;6.78;2.35;;;24.80;99.90;;;;;;5018745;28;20232;-74
2023/08/24 08:38:06;;;;;;;5.43;1.95;;;25.50;99.90;;;;;;5011164;28;20174;-73
2023/08/24 08:40:36;;;;;;;6.03;2.08;;;25.50;99.90;;;;;;5010478;28;20230;-74
2023/08/24 08:43:02;;;;;;;4.95;1.98;;;26.00;99.90;;;;;;5009885;28;20203;-74
2023/08/24 08:45:28;;;;;;;7.15;2.20;;;26.40;99.90;;;;;;5010338;28;20179;-74
2023/08/24 08:48:01;;;;;;;4.75;2.03;;;26.00;99.90;;;;;;5010607;28;20167;-73
2023/08/24 08:50:27;;;;;;;5.45;2.22;;;26.10;44.30;;;;;;5011986;28;20270;-74
2023/08/24 08:52:52;;;;;;;4.05;1.80;;;26.70;61.60;;;;;;5019734;28;20183;-74
2023/08/24 08:55:19;;;;;;;6.22;1.83;;;26.80;1.00;;;;;;5023442;28;20536;-73
2023/08/24 08:57:48;;;;;;;9.05;1.88;;;27.10;1.00;;;;;;5030644;28;20185;-74
2023/08/24 09:00:16;;;;;;;9.13;2.20;;;27.00;99.90;;;;;;5030602;28;20670;-73
2023/08/24 09:02:45;;;;;;;8.32;2.20;;;27.90;1.00;;;;;;5030501;28;20185;-73
2023/08/24 09:05:11;;;;;;;6.50;2.20;;;27.70;99.90;;;;;;5030391;28;20177;-73
2023/08/24 09:07:39;;;;;;;8.45;2.40;;;27.40;1.00;;;;;;5030552;28;20196;-73
2023/08/24 09:10:07;;;;;;;5.97;2.45;;;27.10;99.90;;;;;;5030442;28;20197;-73
2023/08/24 09:12:33;;;;;;;3.33;1.77;;;26.40;99.90;;;;;;5033524;28;20536;-73
2023/08/24 09:14:58;;;;;;;3.35;1.60;;;25.80;1.00;;;;;;5032744;28;20181;-72
2023/08/24 09:17:24;;;;;;;2.85;1.70;;;26.10;1.00;;;;;;5032708;28;20182;-74
2023/08/24 09:19:51;;;;;;;7.70;1.90;;;25.90;99.90;;;;;;5033945;28;20166;-73
2023/08/24 09:22:18;;;;;;;3.80;1.73;;;;;;;;;;5034099;28;20209;-73
2023/08/24 09:24:45;;;;;;;4.57;2.05;;;;;;;;;;5034008;28;20177;-72
2023/08/24 09:27:18;;;;;;;5.88;2.15;;;25.70;1.00;;;;;;5033933;28;20166;-74
2023/08/24 09:29:51;;;;;;;3.42;1.63;;;24.90;99.90;;;;;;5032523;28;20180;-74
2023/08/24 09:32:34;;;;;;;3.72;1.70;;;24.20;1.00;;;;;;5033409;28;20663;-73
2023/08/24 09:35:07;;;;;;;6.05;1.90;;;24.10;1.00;;;;;;5033921;28;20181;-72
2023/08/24 09:37:34;;;;;;;5.05;1.80;;;23.90;1.00;;;;;;5033507;28;20170;-72
2023/08/24 09:40:07;;;;;;;5.40;1.95;;;23.40;1.00;;;;;;5033609;28;20248;-72
2023/08/24 09:42:39;;;;;;;8.48;2.22;;;23.20;1.00;;;;;;5034027;28;20193;-73
2023/08/24 09:45:05;;;;;;;8.05;1.85;;;23.00;99.90;;;;;;5027445;28;20178;-72
2023/08/24 09:47:31;;;;;;;4.80;1.83;;;23.00;99.90;;;;;;5033242;28;20169;-72
2023/08/24 09:49:56;;;;;;;5.85;2.00;;;23.30;1.00;;;;;;5032348;28;20205;-72
2023/08/24 09:52:28;;;;;;;4.55;1.98;;;23.10;99.90;;;;;;5034080;28;20162;-73
2023/08/24 09:54:53;;;;;;;4.25;2.08;;;23.10;99.90;;;;;;5033614;28;20185;-73
2023/08/24 09:57:20;;;;;;;4.97;2.05;;;23.60;1.00;;;;;;5031997;28;20619;-72
2023/08/24 09:59:47;;;;;;;5.93;2.00;;;24.10;99.90;;;;;;5032261;28;20201;-73
2023/08/24 10:02:20;;;;;;;4.82;1.92;;;25.00;1.00;;;;;;5033376;28;20214;-73
2023/08/24 10:04:50;;;;;;;6.05;2.38;;;25.30;1.00;;;;;;5033391;28;20173;-73
2023/08/24 10:07:20;;;;;;;4.90;1.90;;;25.10;1.00;;;;;;5033556;28;20261;-72
2023/08/24 10:09:52;;;;;;;4.68;1.55;;;25.60;99.90;;;;;;5032366;28;20216;-73
2023/08/24 10:12:24;;;;;;;12.50;2.15;;;25.90;8.90;;;;;;5023035;28;20167;-73
2023/08/24 10:15:01;;;;;;;5.50;1.50;;;25.90;1.00;;;;;;5027771;28;20224;-73
2023/08/24 10:17:27;;;;;;;4.00;1.65;;;26.00;1.00;;;;;;5023741;28;21240;-73
2023/08/24 10:19:55;;;;;;;4.28;1.45;;;26.80;1.00;;;;;;5024177;28;20213;-73
2023/08/24 10:22:21;;;;;;;3.83;1.60;;;26.80;1.00;;;;;;5018956;28;20245;-73
2023/08/24 10:24:48;;;;;;;4.60;1.70;;;26.90;99.90;;;;;;5012662;28;20178;-74
2023/08/24 10:27:16;;;;;;;4.43;1.30;;;27.10;99.90;;;;;;5012741;28;20179;-74
2023/08/24 10:29:42;;;;;;;3.65;1.40;;;27.10;99.90;;;;;;5023253;28;20171;-73
2023/08/24 10:32:08;;;;;;;6.85;1.70;;;27.10;1.00;;;;;;5023801;28;20320;-74
2023/08/24 10:34:34;;;;;;;3.95;1.38;;;;;;;;;;5024948;28;20172;-74
2023/08/24 10:37:11;;;;;;;4.05;1.40;;;27.50;1.00;;;;;;5032503;28;20178;-74
2023/08/24 10:39:38;;;;;;;1.88;0.98;;;26.70;1.00;;;;;;5032414;28;20170;-73
2023/08/24 10:42:04;;;;;;;4.53;1.55;;;26.70;1.00;;;;;;5031229;28;20228;-74
2023/08/24 10:44:37;;;;;;;2.95;1.23;;;27.50;1.00;;;;;;5032117;28;20180;-73
2023/08/24 10:47:25;;;;;;;4.75;1.10;;;27.50;1.00;;;;;;5031582;28;20165;-74
2023/08/24 10:49:54;;;;;;;5.80;1.38;;;27.90;1.00;;;;;;5030451;28;20166;-74
2023/08/24 10:52:35;;;;;;;4.20;1.10;;;28.20;1.00;;;;;;5030517;28;20672;-73
2023/08/24 10:55:03;;;;;;;9.55;1.10;;;28.60;1.00;;;;;;5031028;28;20261;-73
2023/08/24 10:57:36;;;;;;;7.22;1.10;;;28.70;1.00;;;;;;5032222;28;20180;-73
2023/08/24 11:00:09;;;;;;;4.47;1.27;;;28.80;1.00;;;;;;5031345;28;20161;-73
2023/08/24 11:02:51;;;;;;;4.78;1.08;;;29.00;1.00;;;;;;5030657;28;20585;-73
2023/08/24 11:05:35;;;;;;;3.47;1.23;;;29.20;1.00;;;;;;5031972;28;20170;-74
2023/08/24 11:08:05;;;;;;;6.55;1.00;;;28.70;99.90;;;;;;5032085;28;20560;-74
2023/08/24 11:10:41;;;;;;;4.80;1.40;;;29.30;99.90;;;;;;5032216;28;20177;-76
2023/08/24 11:13:12;;;;;;;4.13;0.95;;;29.50;1.00;;;;;;5032277;28;20168;-75
2023/08/24 11:15:45;;;;;;;8.10;1.05;;;28.90;99.90;;;;;;5031801;28;20193;-76
2023/08/24 11:18:14;;;;;;;3.30;1.00;;;28.40;99.90;;;;;;5031837;28;20827;-74
2023/08/24 11:20:48;;;;;;;2.65;0.98;;;28.60;1.00;;;;;;5031339;28;20202;-73
2023/08/24 11:23:16;;;;;;;2.85;0.80;;;28.50;99.90;;;;;;5031294;28;20170;-74
2023/08/24 11:25:41;;;;;;;1.58;0.93;;;28.00;99.90;;;;;;5029897;28;20256;-74
2023/08/24 11:28:07;;;;;;;3.92;0.85;;;28.40;99.90;;;;;;5031836;28;20174;-73
2023/08/24 11:30:34;;;;;;;1.50;0.88;;;28.60;99.90;;;;;;5031507;28;20253;-74
2023/08/24 11:33:01;;;;;;;2.45;0.77;;;28.70;99.90;;;;;;5030238;28;20189;-75
2023/08/24 11:35:27;;;;;;;3.28;1.20;;;28.00;99.90;;;;;;5031479;28;20252;-74
2023/08/24 11:37:56;;;;;;;1.17;0.75;;;27.60;99.90;;;;;;5031586;28;20258;-73
2023/08/24 11:40:31;;;;;;;1.58;0.70;;;27.40;99.90;;;;;;5031236;28;20221;-72
2023/08/24 11:42:57;;;;;;;1.60;0.90;;;;;;;;;;5030928;28;20177;-73
2023/08/24 11:45:23;;;;;;;1.27;0.90;;;26.90;95.40;;;;;;5030798;28;20173;-72
2023/08/24 11:47:50;;;;;;;2.72;1.08;;;26.40;99.90;;;;;;5022305;28;20182;-73
2023/08/24 11:50:17;;;;;;;3.47;0.80;;;26.20;99.90;;;;;;5025738;28;20173;-72
2023/08/24 11:52:43;;;;;;;3.78;1.00;;;25.90;99.90;;;;;;5032243;28;20255;-72
2023/08/24 11:55:09;;;;;;;4.13;1.48;;;25.80;1.00;;;;;;5038733;28;20655;-72
2023/08/24 11:57:36;;;;;;;5.65;1.60;;;26.20;1.00;;;;;;5026938;28;20185;-73
2023/08/24 12:00:03;;;;;;;3.08;1.20;;;26.10;1.00;;;;;;5021720;28;20253;-76
2023/08/24 12:02:29;;;;;;;3.80;1.20;;;28.10;99.90;;;;;;5030441;28;20697;-73
2023/08/24 12:04:55;;;;;;;6.18;1.55;;;28.00;99.90;;;;;;5030717;28;20182;-73
2023/08/24 12:07:21;;;;;;;3.47;1.45;;;28.10;99.90;;;;;;5030590;28;20192;-73
2023/08/24 12:09:47;;;;;;;3.05;1.55;;;27.40;99.90;;;;;;5030937;28;20162;-74
2023/08/24 12:12:17;;;;;;;4.07;1.90;;;26.70;99.90;;;;;;5031018;28;20196;-74
2023/08/24 12:14:44;;;;;;;3.42;1.98;;;26.10;1.00;;;;;;5030365;28;20190;-74
2023/08/24 12:17:10;;;;;;;5.13;2.30;;;;;;;;;;5030258;28;20189;-74
2023/08/24 12:19:37;;;;;;;6.90;2.17;;;25.50;1.00;;;;;;5030822;28;20235;-76
2023/08/24 12:22:03;;;;;;;3.05;1.70;;;24.60;99.90;;;;;;5030201;28;20217;-74
2023/08/24 12:24:28;;;;;;;3.85;2.22;;;24.40;99.90;;;;;;5030842;28;20224;-75
2023/08/24 12:26:59;;;;;;;3.63;1.42;;;24.50;1.00;;;;;;5029054;28;20627;-74
2023/08/24 12:29:25;;;;;;;2.95;1.75;;;24.60;1.00;;;;;;5030288;28;20266;-75
2023/08/24 12:31:50;;;;;;;4.60;2.10;;;24.50;1.00;;;;;;5030516;28;20209;-74
2023/08/24 12:34:17;;;;;;;3.60;1.80;;;;;;;;;;5027623;28;21010;-76
2023/08/24 12:36:43;;;;;;;5.47;1.55;;;24.30;99.90;;;;;;5030654;28;20204;-74
2023/08/24 12:39:12;;;;;;;3.70;1.58;;;24.20;99.90;;;;;;5030542;28;20615;-74
2023/08/24 12:41:38;;;;;;;4.22;1.52;;;24.10;99.90;;;;;;5030019;28;20233;-74
2023/08/24 12:44:07;;;;;;;1.67;1.00;;;24.70;99.90;;;;;;5030479;28;20518;-75
2023/08/24 12:46:36;;;;;;;3.15;1.42;;;24.80;99.90;;;;;;5031794;28;20192;-74
2023/08/24 12:49:02;;;;;;;1.95;1.20;;;25.90;1.00;;;;;;5034457;28;20178;-75
2023/08/24 12:51:28;;;;;;;10.20;1.40;;;27.10;99.90;;;;;;5034550;28;20170;-75